LNI823 WIKK-WIII
Flight info
| Callsign | LNI823 |
|---|---|
| Flight time | 0h 48m |
| Altitude | 31000 |
| Route | BOSLO W26 BUNIK |
| Aircraft | MD88/M-SDFGIRWY/S |
Departure
| Time | 2026-04-27 04:08 |
|---|---|
| Airport | Depati Amir Airport (WIKK) |
Arrival
| Time | 2026-04-27 04:57 |
|---|---|
| Airport | Soekarno-Hatta International Airport (WIII) |
| Time | Latitude | Longitude | Altitude | Speed | Heading |
|---|---|---|---|---|---|
| 2026-04-27 03:38 | -2.15867 | 106.14038 | 101 ft | 0 kts | 75° |
| 2026-04-27 03:55 | -2.15868 | 106.14036 | 100 ft | 1 kts | 75° |
| 2026-04-27 03:55 | -2.15872 | 106.14021 | 101 ft | 2 kts | 73° |
| 2026-04-27 03:55 | -2.15876 | 106.14008 | 101 ft | 1 kts | 73° |
| 2026-04-27 03:55 | -2.15876 | 106.13994 | 101 ft | 2 kts | 122° |
| 2026-04-27 03:56 | -2.15864 | 106.13985 | 101 ft | 1 kts | 169° |
| 2026-04-27 03:56 | -2.15850 | 106.13983 | 101 ft | 2 kts | 168° |
| 2026-04-27 03:56 | -2.15836 | 106.13979 | 101 ft | 2 kts | 161° |
| 2026-04-27 03:56 | -2.15823 | 106.13975 | 101 ft | 1 kts | 163° |
| 2026-04-27 03:57 | -2.15821 | 106.13974 | 101 ft | 0 kts | 164° |
| 2026-04-27 04:00 | -2.15829 | 106.13976 | 101 ft | 2 kts | 164° |
| 2026-04-27 04:01 | -2.15850 | 106.13982 | 101 ft | 4 kts | 164° |
| 2026-04-27 04:01 | -2.15884 | 106.13992 | 101 ft | 5 kts | 164° |
| 2026-04-27 04:01 | -2.15929 | 106.14005 | 101 ft | 8 kts | 164° |
| 2026-04-27 04:01 | -2.16002 | 106.14025 | 104 ft | 11 kts | 166° |
| 2026-04-27 04:02 | -2.16073 | 106.14043 | 106 ft | 9 kts | 165° |
| 2026-04-27 04:02 | -2.16131 | 106.14059 | 108 ft | 8 kts | 164° |
| 2026-04-27 04:02 | -2.16197 | 106.14078 | 109 ft | 11 kts | 164° |
| 2026-04-27 04:02 | -2.16279 | 106.14101 | 110 ft | 13 kts | 165° |
| 2026-04-27 04:03 | -2.16371 | 106.14126 | 111 ft | 14 kts | 164° |
| 2026-04-27 04:03 | -2.16465 | 106.14136 | 111 ft | 13 kts | 212° |
| 2026-04-27 04:03 | -2.16491 | 106.14086 | 113 ft | 7 kts | 253° |
| 2026-04-27 04:03 | -2.16507 | 106.14032 | 114 ft | 8 kts | 253° |
| 2026-04-27 04:04 | -2.16550 | 106.13995 | 115 ft | 9 kts | 174° |
| 2026-04-27 04:04 | -2.16623 | 106.14015 | 114 ft | 12 kts | 164° |
| 2026-04-27 04:04 | -2.16717 | 106.14041 | 113 ft | 15 kts | 164° |
| 2026-04-27 04:04 | -2.16828 | 106.14072 | 113 ft | 17 kts | 165° |
| 2026-04-27 04:05 | -2.16922 | 106.14097 | 113 ft | 8 kts | 165° |
| 2026-04-27 04:05 | -2.16989 | 106.14115 | 114 ft | 10 kts | 164° |
| 2026-04-27 04:05 | -2.17042 | 106.14146 | 113 ft | 2 kts | 149° |
| 2026-04-27 04:05 | -2.17064 | 106.14142 | 113 ft | 3 kts | 239° |
| 2026-04-27 04:06 | -2.17049 | 106.14124 | 114 ft | 4 kts | 345° |
| 2026-04-27 04:06 | -2.17046 | 106.14123 | 114 ft | 0 kts | 345° |
| 2026-04-27 04:07 | -2.17045 | 106.14123 | 114 ft | 0 kts | 345° |
| 2026-04-27 04:07 | -2.17022 | 106.14117 | 114 ft | 2 kts | 345° |
| 2026-04-27 04:07 | -2.17017 | 106.14116 | 114 ft | 0 kts | 345° |
| 2026-04-27 04:07 | -2.16861 | 106.14075 | 113 ft | 53 kts | 345° |
| 2026-04-27 04:08 | -2.16301 | 106.13919 | 116 ft | 109 kts | 344° |
| 2026-04-27 04:08 | -2.15401 | 106.13674 | 120 ft | 153 kts | 346° |
| 2026-04-27 04:08 | -2.14299 | 106.13386 | 433 ft | 171 kts | 347° |
| 2026-04-27 04:08 | -2.13123 | 106.13086 | 966 ft | 174 kts | 346° |
| 2026-04-27 04:09 | -2.11924 | 106.12835 | 1454 ft | 179 kts | 351° |
| 2026-04-27 04:09 | -2.10776 | 106.12386 | 1931 ft | 186 kts | 320° |
| 2026-04-27 04:09 | -2.09922 | 106.11424 | 2395 ft | 190 kts | 327° |
| 2026-04-27 04:09 | -2.08661 | 106.11112 | 2895 ft | 192 kts | 10° |
| 2026-04-27 04:10 | -2.07473 | 106.11796 | 3204 ft | 209 kts | 54° |
| 2026-04-27 04:10 | -2.07020 | 106.13140 | 3897 ft | 208 kts | 93° |
| 2026-04-27 04:10 | -2.07519 | 106.14488 | 4434 ft | 219 kts | 130° |
| 2026-04-27 04:10 | -2.08784 | 106.15353 | 4972 ft | 231 kts | 162° |
| 2026-04-27 04:11 | -2.10424 | 106.15437 | 5584 ft | 242 kts | 184° |
| 2026-04-27 04:11 | -2.12145 | 106.15379 | 6162 ft | 252 kts | 175° |
| 2026-04-27 04:11 | -2.13923 | 106.15603 | 6757 ft | 261 kts | 166° |
| 2026-04-27 04:11 | -2.15722 | 106.16102 | 7342 ft | 271 kts | 166° |
| 2026-04-27 04:12 | -2.17619 | 106.16388 | 7929 ft | 281 kts | 169° |
| 2026-04-27 04:12 | -2.19598 | 106.16685 | 8509 ft | 291 kts | 168° |
| 2026-04-27 04:12 | -2.21612 | 106.16991 | 9232 ft | 294 kts | 168° |
| 2026-04-27 04:12 | -2.23629 | 106.17300 | 9930 ft | 297 kts | 168° |
| 2026-04-27 04:13 | -2.25735 | 106.17625 | 10293 ft | 314 kts | 169° |
| 2026-04-27 04:13 | -2.27999 | 106.17978 | 10332 ft | 341 kts | 169° |
| 2026-04-27 04:13 | -2.30380 | 106.18349 | 10988 ft | 346 kts | 169° |
| 2026-04-27 04:13 | -2.32804 | 106.18726 | 11716 ft | 349 kts | 169° |
| 2026-04-27 04:14 | -2.35206 | 106.19103 | 12375 ft | 353 kts | 169° |
| 2026-04-27 04:14 | -2.37664 | 106.19488 | 13078 ft | 355 kts | 169° |
| 2026-04-27 04:14 | -2.40122 | 106.19873 | 13728 ft | 358 kts | 169° |
| 2026-04-27 04:14 | -2.42583 | 106.20259 | 14366 ft | 361 kts | 169° |
| 2026-04-27 04:15 | -2.45125 | 106.20657 | 14969 ft | 365 kts | 169° |
| 2026-04-27 04:15 | -2.47674 | 106.21059 | 15578 ft | 367 kts | 169° |
| 2026-04-27 04:15 | -2.50194 | 106.21455 | 16139 ft | 371 kts | 169° |
| 2026-04-27 04:15 | -2.52779 | 106.21862 | 16710 ft | 374 kts | 169° |
| 2026-04-27 04:16 | -2.55348 | 106.22267 | 17241 ft | 377 kts | 169° |
| 2026-04-27 04:16 | -2.57943 | 106.22675 | 17740 ft | 381 kts | 169° |
| 2026-04-27 04:16 | -2.60611 | 106.23095 | 18203 ft | 386 kts | 169° |
| 2026-04-27 04:16 | -2.63252 | 106.23511 | 18701 ft | 389 kts | 169° |
| 2026-04-27 04:17 | -2.65966 | 106.23938 | 19161 ft | 393 kts | 169° |
| 2026-04-27 04:17 | -2.68682 | 106.24366 | 19602 ft | 397 kts | 169° |
| 2026-04-27 04:17 | -2.71448 | 106.24802 | 20080 ft | 400 kts | 169° |
| 2026-04-27 04:17 | -2.74180 | 106.25232 | 20486 ft | 404 kts | 169° |
| 2026-04-27 04:18 | -2.76968 | 106.25672 | 20913 ft | 407 kts | 169° |
| 2026-04-27 04:18 | -2.79804 | 106.26118 | 21312 ft | 411 kts | 169° |
| 2026-04-27 04:18 | -2.82654 | 106.26568 | 21731 ft | 414 kts | 169° |
| 2026-04-27 04:18 | -2.85487 | 106.27013 | 22098 ft | 418 kts | 169° |
| 2026-04-27 04:19 | -2.88395 | 106.27471 | 22494 ft | 421 kts | 169° |
| 2026-04-27 04:19 | -2.91282 | 106.27926 | 22951 ft | 422 kts | 169° |
| 2026-04-27 04:19 | -2.94221 | 106.28391 | 23327 ft | 426 kts | 169° |
| 2026-04-27 04:19 | -2.97147 | 106.28851 | 23746 ft | 428 kts | 169° |
| 2026-04-27 04:20 | -3.00119 | 106.29319 | 24140 ft | 430 kts | 169° |
| 2026-04-27 04:20 | -3.03071 | 106.29784 | 24538 ft | 432 kts | 169° |
| 2026-04-27 04:20 | -3.06090 | 106.30260 | 24921 ft | 435 kts | 169° |
| 2026-04-27 04:20 | -3.09080 | 106.30731 | 25250 ft | 438 kts | 169° |
| 2026-04-27 04:21 | -3.12121 | 106.31211 | 25651 ft | 439 kts | 169° |
| 2026-04-27 04:21 | -3.15156 | 106.31690 | 25944 ft | 443 kts | 169° |
| 2026-04-27 04:21 | -3.18215 | 106.32172 | 26317 ft | 445 kts | 169° |
| 2026-04-27 04:21 | -3.21288 | 106.32658 | 26650 ft | 447 kts | 169° |
| 2026-04-27 04:22 | -3.24371 | 106.33144 | 26971 ft | 450 kts | 169° |
| 2026-04-27 04:22 | -3.27459 | 106.33631 | 27317 ft | 452 kts | 169° |
| 2026-04-27 04:22 | -3.30581 | 106.34123 | 27609 ft | 455 kts | 169° |
| 2026-04-27 04:22 | -3.33716 | 106.34618 | 27981 ft | 455 kts | 169° |
| 2026-04-27 04:23 | -3.36849 | 106.35112 | 28398 ft | 455 kts | 169° |
| 2026-04-27 04:23 | -3.40010 | 106.35610 | 28819 ft | 454 kts | 169° |
| 2026-04-27 04:23 | -3.43120 | 106.36101 | 29256 ft | 453 kts | 169° |
| 2026-04-27 04:23 | -3.46208 | 106.36589 | 29720 ft | 451 kts | 169° |
| 2026-04-27 04:24 | -3.49318 | 106.37078 | 30119 ft | 450 kts | 169° |
| 2026-04-27 04:24 | -3.52413 | 106.37566 | 30524 ft | 449 kts | 169° |
| 2026-04-27 04:24 | -3.55507 | 106.38055 | 30826 ft | 443 kts | 169° |
| 2026-04-27 04:24 | -3.58543 | 106.38534 | 30826 ft | 439 kts | 169° |
| 2026-04-27 04:25 | -3.64586 | 106.39539 | 30845 ft | 444 kts | 167° |
| 2026-04-27 04:25 | -3.70741 | 106.40696 | 30843 ft | 447 kts | 167° |
| 2026-04-27 04:26 | -3.76845 | 106.41840 | 30849 ft | 445 kts | 167° |
| 2026-04-27 04:26 | -3.82937 | 106.42981 | 30855 ft | 446 kts | 167° |
| 2026-04-27 04:27 | -3.89061 | 106.44128 | 30855 ft | 446 kts | 167° |
| 2026-04-27 04:27 | -3.95174 | 106.45274 | 30857 ft | 446 kts | 167° |
| 2026-04-27 04:28 | -4.01283 | 106.46416 | 30855 ft | 445 kts | 167° |
| 2026-04-27 04:28 | -4.07381 | 106.47559 | 30848 ft | 445 kts | 167° |
| 2026-04-27 04:29 | -4.13490 | 106.48703 | 30842 ft | 445 kts | 167° |
| 2026-04-27 04:29 | -4.19611 | 106.49850 | 30840 ft | 445 kts | 167° |
| 2026-04-27 04:30 | -4.25706 | 106.50991 | 30841 ft | 445 kts | 167° |
| 2026-04-27 04:30 | -4.31825 | 106.52137 | 30841 ft | 446 kts | 167° |
| 2026-04-27 04:31 | -4.37937 | 106.53281 | 30841 ft | 445 kts | 167° |
| 2026-04-27 04:31 | -4.44054 | 106.54427 | 30842 ft | 445 kts | 167° |
| 2026-04-27 04:32 | -4.50162 | 106.55572 | 30841 ft | 445 kts | 167° |
| 2026-04-27 04:32 | -4.56240 | 106.56712 | 30841 ft | 445 kts | 167° |
| 2026-04-27 04:33 | -4.62339 | 106.57855 | 30842 ft | 446 kts | 168° |
| 2026-04-27 04:33 | -4.68465 | 106.59004 | 30841 ft | 445 kts | 167° |
| 2026-04-27 04:34 | -4.74564 | 106.60147 | 30841 ft | 445 kts | 167° |
| 2026-04-27 04:34 | -4.80652 | 106.61291 | 30842 ft | 445 kts | 168° |
| 2026-04-27 04:35 | -4.86680 | 106.62635 | 30843 ft | 443 kts | 160° |
| 2026-04-27 04:35 | -4.92348 | 106.65050 | 30846 ft | 441 kts | 153° |
| 2026-04-27 04:36 | -4.97940 | 106.67654 | 30845 ft | 442 kts | 153° |
| 2026-04-27 04:36 | -5.03519 | 106.70225 | 30481 ft | 440 kts | 153° |
| 2026-04-27 04:37 | -5.06314 | 106.71510 | 29832 ft | 443 kts | 153° |
| 2026-04-27 04:37 | -5.09094 | 106.72787 | 29212 ft | 442 kts | 153° |
| 2026-04-27 04:37 | -5.11894 | 106.74070 | 28583 ft | 440 kts | 154° |
| 2026-04-27 04:37 | -5.14661 | 106.75337 | 27979 ft | 438 kts | 154° |
| 2026-04-27 04:38 | -5.17457 | 106.76617 | 27417 ft | 434 kts | 154° |
| 2026-04-27 04:38 | -5.20182 | 106.77850 | 26896 ft | 431 kts | 154° |
| 2026-04-27 04:38 | -5.22929 | 106.79091 | 26294 ft | 430 kts | 154° |
| 2026-04-27 04:38 | -5.25632 | 106.80313 | 25704 ft | 428 kts | 154° |
| 2026-04-27 04:39 | -5.28365 | 106.81551 | 25106 ft | 426 kts | 154° |
| 2026-04-27 04:39 | -5.31034 | 106.82758 | 24519 ft | 423 kts | 154° |
| 2026-04-27 04:39 | -5.33724 | 106.83977 | 23923 ft | 420 kts | 154° |
| 2026-04-27 04:39 | -5.36376 | 106.85179 | 23336 ft | 417 kts | 154° |
| 2026-04-27 04:40 | -5.39027 | 106.86381 | 22748 ft | 415 kts | 154° |
| 2026-04-27 04:40 | -5.41648 | 106.87568 | 22160 ft | 412 kts | 154° |
| 2026-04-27 04:40 | -5.44264 | 106.88721 | 21568 ft | 410 kts | 159° |
| 2026-04-27 04:40 | -5.47033 | 106.89333 | 20988 ft | 409 kts | 174° |
| 2026-04-27 04:41 | -5.49868 | 106.89259 | 20518 ft | 405 kts | 188° |
| 2026-04-27 04:41 | -5.52585 | 106.88517 | 20013 ft | 402 kts | 201° |
| 2026-04-27 04:41 | -5.55152 | 106.87421 | 19517 ft | 398 kts | 201° |
| 2026-04-27 04:41 | -5.57712 | 106.86358 | 19001 ft | 394 kts | 201° |
| 2026-04-27 04:42 | -5.60241 | 106.85332 | 18493 ft | 390 kts | 201° |
| 2026-04-27 04:42 | -5.62742 | 106.84331 | 17989 ft | 387 kts | 200° |
| 2026-04-27 04:42 | -5.65229 | 106.83347 | 17484 ft | 383 kts | 200° |
| 2026-04-27 04:42 | -5.67730 | 106.82364 | 16976 ft | 380 kts | 199° |
| 2026-04-27 04:43 | -5.70191 | 106.81403 | 16469 ft | 377 kts | 199° |
| 2026-04-27 04:43 | -5.72603 | 106.80463 | 15969 ft | 374 kts | 199° |
| 2026-04-27 04:43 | -5.75019 | 106.79526 | 15463 ft | 371 kts | 199° |
| 2026-04-27 04:43 | -5.77449 | 106.78584 | 14947 ft | 368 kts | 199° |
| 2026-04-27 04:44 | -5.79841 | 106.77658 | 14427 ft | 366 kts | 199° |
| 2026-04-27 04:44 | -5.82206 | 106.76743 | 13900 ft | 364 kts | 199° |
| 2026-04-27 04:44 | -5.84538 | 106.75760 | 13337 ft | 364 kts | 207° |
| 2026-04-27 04:44 | -5.86551 | 106.74227 | 12865 ft | 363 kts | 223° |
| 2026-04-27 04:45 | -5.88080 | 106.72235 | 12437 ft | 360 kts | 239° |
| 2026-04-27 04:45 | -5.89046 | 106.69937 | 12028 ft | 355 kts | 250° |
| 2026-04-27 04:45 | -5.89887 | 106.67619 | 11619 ft | 351 kts | 249° |
| 2026-04-27 04:45 | -5.90729 | 106.65350 | 11168 ft | 347 kts | 249° |
| 2026-04-27 04:46 | -5.91582 | 106.63095 | 10751 ft | 343 kts | 248° |
| 2026-04-27 04:46 | -5.92436 | 106.60873 | 10346 ft | 339 kts | 248° |
| 2026-04-27 04:46 | -5.93282 | 106.58695 | 9927 ft | 336 kts | 248° |
| 2026-04-27 04:46 | -5.94149 | 106.56552 | 9680 ft | 327 kts | 247° |
| 2026-04-27 04:47 | -5.94996 | 106.54462 | 9451 ft | 318 kts | 247° |
| 2026-04-27 04:47 | -5.95822 | 106.52422 | 9210 ft | 311 kts | 247° |
| 2026-04-27 04:47 | -5.96623 | 106.50442 | 9000 ft | 304 kts | 247° |
| 2026-04-27 04:47 | -5.97410 | 106.48495 | 8790 ft | 296 kts | 247° |
| 2026-04-27 04:48 | -5.98175 | 106.46602 | 8554 ft | 290 kts | 247° |
| 2026-04-27 04:48 | -5.98927 | 106.44740 | 8330 ft | 284 kts | 247° |
| 2026-04-27 04:48 | -5.99669 | 106.42900 | 8115 ft | 280 kts | 247° |
| 2026-04-27 04:48 | -6.00395 | 106.41099 | 7920 ft | 279 kts | 247° |
| 2026-04-27 04:49 | -6.01130 | 106.39279 | 7748 ft | 281 kts | 247° |
| 2026-04-27 04:49 | -6.01863 | 106.37463 | 7595 ft | 278 kts | 247° |
| 2026-04-27 04:49 | -6.02581 | 106.35685 | 7412 ft | 271 kts | 247° |
| 2026-04-27 04:49 | -6.03279 | 106.33923 | 7230 ft | 265 kts | 249° |
| 2026-04-27 04:50 | -6.04232 | 106.32403 | 7038 ft | 255 kts | 219° |
| 2026-04-27 04:50 | -6.05776 | 106.31554 | 6746 ft | 259 kts | 191° |
| 2026-04-27 04:50 | -6.07594 | 106.31550 | 6324 ft | 269 kts | 163° |
| 2026-04-27 04:50 | -6.09267 | 106.32435 | 5884 ft | 272 kts | 136° |
| 2026-04-27 04:51 | -6.10463 | 106.33886 | 5465 ft | 273 kts | 128° |
| 2026-04-27 04:51 | -6.11645 | 106.35404 | 4986 ft | 277 kts | 127° |
| 2026-04-27 04:51 | -6.12860 | 106.36973 | 4491 ft | 281 kts | 127° |
| 2026-04-27 04:51 | -6.14051 | 106.38515 | 4002 ft | 284 kts | 127° |
| 2026-04-27 04:52 | -6.15267 | 106.40094 | 3497 ft | 287 kts | 127° |
| 2026-04-27 04:52 | -6.16508 | 106.41711 | 2975 ft | 291 kts | 127° |
| 2026-04-27 04:52 | -6.17728 | 106.43327 | 2473 ft | 292 kts | 124° |
| 2026-04-27 04:52 | -6.18452 | 106.45149 | 2292 ft | 278 kts | 96° |
| 2026-04-27 04:53 | -6.18265 | 106.47035 | 2137 ft | 266 kts | 72° |
| 2026-04-27 04:53 | -6.17750 | 106.48785 | 1991 ft | 255 kts | 73° |
| 2026-04-27 04:53 | -6.17169 | 106.50428 | 1950 ft | 242 kts | 68° |
| 2026-04-27 04:53 | -6.16521 | 106.51953 | 1949 ft | 232 kts | 68° |
| 2026-04-27 04:54 | -6.15906 | 106.53422 | 1886 ft | 222 kts | 67° |
| 2026-04-27 04:54 | -6.15325 | 106.54826 | 1810 ft | 213 kts | 67° |
| 2026-04-27 04:54 | -6.14781 | 106.56151 | 1726 ft | 195 kts | 68° |
| 2026-04-27 04:54 | -6.14289 | 106.57353 | 1590 ft | 175 kts | 67° |
| 2026-04-27 04:55 | -6.13834 | 106.58459 | 1346 ft | 166 kts | 67° |
| 2026-04-27 04:55 | -6.13432 | 106.59445 | 1148 ft | 148 kts | 67° |
| 2026-04-27 04:55 | -6.13048 | 106.60375 | 866 ft | 139 kts | 68° |
| 2026-04-27 04:55 | -6.12692 | 106.61237 | 584 ft | 133 kts | 67° |
| 2026-04-27 04:56 | -6.12346 | 106.62113 | 497 ft | 145 kts | 68° |
| 2026-04-27 04:56 | -6.11979 | 106.63023 | 363 ft | 144 kts | 69° |
| 2026-04-27 04:56 | -6.11596 | 106.63951 | 195 ft | 138 kts | 68° |
| 2026-04-27 04:56 | -6.11234 | 106.64857 | 50 ft | 137 kts | 67° |
| 2026-04-27 04:57 | -6.10909 | 106.65664 | 45 ft | 112 kts | 68° |
| 2026-04-27 04:57 | -6.10670 | 106.66258 | 45 ft | 59 kts | 70° |
| 2026-04-27 04:57 | -6.10623 | 106.66469 | 45 ft | 14 kts | 97° |
| 2026-04-27 04:57 | -6.10634 | 106.66536 | 45 ft | 4 kts | 99° |
| 2026-04-27 04:58 | -6.10636 | 106.66548 | 45 ft | 4 kts | 99° |
| 2026-04-27 04:58 | -6.10659 | 106.66621 | 45 ft | 13 kts | 119° |
| 2026-04-27 04:58 | -6.10741 | 106.66674 | 45 ft | 10 kts | 160° |
| 2026-04-27 04:58 | -6.10807 | 106.66652 | 45 ft | 11 kts | 241° |
| 2026-04-27 04:59 | -6.10833 | 106.66582 | 45 ft | 10 kts | 246° |
| 2026-04-27 04:59 | -6.10860 | 106.66520 | 45 ft | 9 kts | 246° |
| 2026-04-27 04:59 | -6.10885 | 106.66457 | 45 ft | 10 kts | 250° |
| 2026-04-27 04:59 | -6.10915 | 106.66383 | 45 ft | 12 kts | 249° |
| 2026-04-27 05:00 | -6.10947 | 106.66295 | 45 ft | 14 kts | 249° |
| 2026-04-27 05:00 | -6.10985 | 106.66198 | 45 ft | 15 kts | 248° |
| 2026-04-27 05:00 | -6.11029 | 106.66088 | 45 ft | 17 kts | 248° |
| 2026-04-27 05:00 | -6.11077 | 106.65970 | 45 ft | 19 kts | 248° |
| 2026-04-27 05:01 | -6.11129 | 106.65838 | 45 ft | 20 kts | 249° |
| 2026-04-27 05:01 | -6.11184 | 106.65696 | 45 ft | 22 kts | 249° |
| 2026-04-27 05:01 | -6.11243 | 106.65546 | 45 ft | 23 kts | 248° |
| 2026-04-27 05:01 | -6.11306 | 106.65390 | 45 ft | 23 kts | 248° |
| 2026-04-27 05:02 | -6.11368 | 106.65238 | 45 ft | 23 kts | 248° |
| 2026-04-27 05:02 | -6.11427 | 106.65091 | 45 ft | 21 kts | 248° |
| 2026-04-27 05:02 | -6.11530 | 106.64829 | 45 ft | 18 kts | 249° |
| 2026-04-27 05:03 | -6.11578 | 106.64707 | 45 ft | 18 kts | 249° |
| 2026-04-27 05:03 | -6.11622 | 106.64596 | 45 ft | 16 kts | 248° |
| 2026-04-27 05:03 | -6.11660 | 106.64500 | 45 ft | 8 kts | 246° |
| 2026-04-27 05:03 | -6.11706 | 106.64475 | 45 ft | 7 kts | 172° |
| 2026-04-27 05:04 | -6.11757 | 106.64491 | 45 ft | 7 kts | 160° |
| 2026-04-27 05:04 | -6.11804 | 106.64508 | 45 ft | 7 kts | 161° |
| 2026-04-27 05:04 | -6.11848 | 106.64500 | 45 ft | 6 kts | 222° |
| 2026-04-27 05:04 | -6.11870 | 106.64462 | 45 ft | 7 kts | 245° |
| 2026-04-27 05:05 | -6.11903 | 106.64416 | 45 ft | 9 kts | 225° |
| 2026-04-27 05:05 | -6.11962 | 106.64370 | 45 ft | 11 kts | 205° |
| 2026-04-27 05:05 | -6.12047 | 106.64378 | 45 ft | 13 kts | 158° |
| 2026-04-27 05:05 | -6.12146 | 106.64417 | 45 ft | 16 kts | 158° |
| 2026-04-27 05:06 | -6.12259 | 106.64462 | 45 ft | 18 kts | 158° |
| 2026-04-27 05:06 | -6.12387 | 106.64513 | 45 ft | 20 kts | 158° |
| 2026-04-27 05:06 | -6.12530 | 106.64571 | 45 ft | 22 kts | 159° |
| 2026-04-27 05:06 | -6.12685 | 106.64632 | 45 ft | 24 kts | 158° |
| 2026-04-27 05:07 | -6.12797 | 106.64677 | 50 ft | 10 kts | 158° |
| 2026-04-27 05:07 | -6.12846 | 106.64696 | 55 ft | 4 kts | 158° |
| 2026-04-27 05:07 | -6.12857 | 106.64701 | 57 ft | 0 kts | 158° |
| 2026-04-27 05:08 | -6.12860 | 106.64702 | 57 ft | 2 kts | 158° |
| 2026-04-27 05:08 | -6.12895 | 106.64716 | 61 ft | 8 kts | 158° |
| 2026-04-27 05:08 | -6.12956 | 106.64741 | 63 ft | 12 kts | 158° |
| 2026-04-27 05:08 | -6.13066 | 106.64785 | 50 ft | 20 kts | 158° |
| 2026-04-27 05:09 | -6.13152 | 106.64840 | 45 ft | 8 kts | 81° |
| 2026-04-27 05:09 | -6.13130 | 106.64895 | 45 ft | 10 kts | 67° |
| 2026-04-27 05:09 | -6.13094 | 106.64978 | 45 ft | 15 kts | 67° |
| 2026-04-27 05:09 | -6.13143 | 106.65055 | 45 ft | 18 kts | 173° |
| 2026-04-27 05:10 | -6.13262 | 106.65105 | 45 ft | 17 kts | 141° |
| 2026-04-27 05:10 | -6.13321 | 106.65112 | 45 ft | 4 kts | 244° |
| 2026-04-27 05:10 | -6.13330 | 106.65092 | 45 ft | 1 kts | 259° |
| 2026-04-27 05:10 | -6.13330 | 106.65088 | 45 ft | 0 kts | 275° |
| 2026-04-27 05:11 | -6.13328 | 106.65080 | 45 ft | 1 kts | 296° |
| 2026-04-27 05:11 | -6.13314 | 106.65069 | 45 ft | 3 kts | 337° |
| 2026-04-27 05:11 | -6.13297 | 106.65061 | 45 ft | 2 kts | 338° |
| 2026-04-27 05:11 | -6.13293 | 106.65060 | 45 ft | 0 kts | 338° |